Weather at Otterson Ranch Airport [CLOSED]

Public forecast

Using degrees Fahrenheit for public forecast. Weather courtesy of forecast.io.

Closest aviation weather report (METAR) to Otterson Ranch Airport

Report is more than 6 hours old.

Closest report is Coeur D'Alene - Pappy Boyington Field, 7.5 nm (13.8 km) ENE. Retrieved 2021/07/26 23:56 UTC (1 day ago):

KCOE 272356Z AUTO 30004KT 10SM -RA FEW046 SCT070 SCT095 26/10 A3006 RMK AO2 RAB54 SLP180 P0000 60000 T02560100 10317 20256 50012

Closest aviation forecast (TAF) to Otterson Ranch Airport

Closest forecast is Coeur D'Alene - Pappy Boyington Field, 7.5 nm (13.8 km) ENE. Retrieved 2021-07-28 00:22 UTC (6 minutes ago):

TAF KCOE 272320Z 2800/2824 24009KT P6SM VCSH BKN250 FM280300 15005KT P6SM BKN120 OVC150 FM281200 10004KT 6SM HZ BKN100 BKN250 FM281800 VRB04KT P6SM SCT100